Time;durP1;ratioP1;P1;durP2;ratioP2;P2;SDS_P1;SDS_P2;PMS_P1;PMS_P2;Temp;Humidity;BMP_temperature;BMP_pressure;BME280_temperature;BME280_humidity;BME280_pressure;Samples;Min_cycle;Max_cycle;Signal;HPM_P1;HPM_P2
2024/04/20 00:00:26;;;;;;;16.10;2.28;;;6.50;99.90;;;;;;5360257;26;20004;-70
2024/04/20 00:02:52;;;;;;;24.30;2.83;;;6.50;99.90;;;;;;5363007;26;20014;-70
2024/04/20 00:05:18;;;;;;;10.73;1.65;;;6.50;99.90;;;;;;5322623;26;20399;-70
2024/04/20 00:07:47;;;;;;;11.30;2.00;;;6.50;99.90;;;;;;5358093;26;20011;-72
2024/04/20 00:10:13;;;;;;;27.80;3.45;;;6.50;99.90;;;;;;5356558;26;20004;-70
2024/04/20 00:12:39;;;;;;;14.43;1.52;;;6.50;99.90;;;;;;5356274;26;20023;-71
2024/04/20 00:15:05;;;;;;;14.88;2.75;;;6.50;99.90;;;;;;5354504;26;20661;-70
2024/04/20 00:17:31;;;;;;;16.17;1.63;;;6.50;99.90;;;;;;5358432;26;20004;-70
2024/04/20 00:19:56;;;;;;;15.65;1.85;;;6.50;99.90;;;;;;5353851;26;20495;-70
2024/04/20 00:22:22;;;;;;;14.45;1.92;;;6.60;99.90;;;;;;5364446;26;20012;-70
2024/04/20 00:24:52;;;;;;;25.02;2.42;;;6.60;99.90;;;;;;5353061;26;20055;-72
2024/04/20 00:27:18;;;;;;;14.48;2.67;;;6.70;99.90;;;;;;5359712;26;20000;-68
2024/04/20 00:29:43;;;;;;;10.05;1.95;;;6.70;99.90;;;;;;5353054;26;20732;-70
2024/04/20 00:32:09;;;;;;;7.90;1.20;;;6.70;99.90;;;;;;5357522;26;20012;-69
2024/04/20 00:34:35;;;;;;;11.18;1.73;;;6.70;99.90;;;;;;5360164;26;20000;-69
2024/04/20 00:37:03;;;;;;;11.60;1.85;;;6.60;99.90;;;;;;5367511;26;20410;-69
2024/04/20 00:39:29;;;;;;;13.50;1.08;;;6.70;99.90;;;;;;5352879;26;20013;-69
2024/04/20 00:41:55;;;;;;;6.20;1.60;;;6.60;99.90;;;;;;5356568;26;20013;-70
2024/04/20 00:44:21;;;;;;;7.60;1.42;;;6.60;99.90;;;;;;5363110;26;20004;-70
2024/04/20 00:46:49;;;;;;;8.63;1.88;;;6.60;99.90;;;;;;5355430;26;20016;-70
2024/04/20 00:49:15;;;;;;;10.93;1.30;;;6.60;99.90;;;;;;5359251;26;20345;-70
2024/04/20 00:51:42;;;;;;;12.75;1.70;;;6.60;99.90;;;;;;5354309;26;20000;-70
2024/04/20 00:54:10;;;;;;;10.98;3.03;;;6.60;99.90;;;;;;5330844;26;20001;-69
2024/04/20 00:56:36;;;;;;;14.18;1.77;;;6.50;99.90;;;;;;5348154;26;19996;-69
2024/04/20 00:59:02;;;;;;;15.38;1.75;;;6.50;99.90;;;;;;5370226;26;20034;-71
2024/04/20 01:01:28;;;;;;;9.93;1.58;;;6.50;99.90;;;;;;5358077;26;20461;-70
2024/04/20 01:03:54;;;;;;;19.52;1.80;;;6.50;99.90;;;;;;5361571;26;20001;-70
2024/04/20 01:06:20;;;;;;;21.20;2.88;;;6.50;99.90;;;;;;5359634;26;20004;-70
2024/04/20 01:08:46;;;;;;;16.58;3.25;;;6.50;99.90;;;;;;5352882;26;20016;-68
2024/04/20 01:11:12;;;;;;;13.80;2.35;;;6.50;99.90;;;;;;5322948;26;20000;-70
2024/04/20 01:13:38;;;;;;;12.70;2.13;;;6.50;99.90;;;;;;5356791;26;20459;-71
2024/04/20 01:16:03;;;;;;;9.57;2.30;;;6.50;99.90;;;;;;5355978;26;20007;-70
2024/04/20 01:18:29;;;;;;;15.48;3.47;;;6.60;99.90;;;;;;5359131;26;20503;-70
2024/04/20 01:20:55;;;;;;;8.27;1.30;;;6.50;99.90;;;;;;5365842;26;20012;-70
2024/04/20 01:23:22;;;;;;;21.70;2.25;;;6.50;99.90;;;;;;5359645;26;20016;-68
2024/04/20 01:25:51;;;;;;;14.45;2.53;;;6.50;99.90;;;;;;5347946;26;20469;-68
2024/04/20 01:28:18;;;;;;;12.23;1.63;;;6.60;99.90;;;;;;5359235;26;20015;-71
2024/04/20 01:30:43;;;;;;;11.68;1.20;;;6.50;99.90;;;;;;5350276;26;20539;-70
2024/04/20 01:33:09;;;;;;;15.13;2.13;;;6.60;99.90;;;;;;5354601;26;20000;-70
2024/04/20 01:35:37;;;;;;;12.20;1.42;;;6.50;99.90;;;;;;5355592;26;20020;-70
2024/04/20 01:38:03;;;;;;;15.95;2.80;;;6.60;99.90;;;;;;5351396;26;20086;-71
2024/04/20 01:40:29;;;;;;;6.20;1.55;;;6.50;99.90;;;;;;5355436;26;20477;-71
2024/04/20 01:42:54;;;;;;;8.10;1.95;;;6.50;99.90;;;;;;5360205;26;20012;-69
2024/04/20 01:45:20;;;;;;;19.00;1.52;;;6.50;99.90;;;;;;5351928;26;20005;-70
2024/04/20 01:47:46;;;;;;;8.90;1.05;;;6.50;99.90;;;;;;5357692;26;20000;-71
2024/04/20 01:50:12;;;;;;;9.80;1.00;;;6.50;99.90;;;;;;5353403;26;20005;-70
2024/04/20 01:52:38;;;;;;;13.50;2.00;;;6.50;99.90;;;;;;5353981;26;20005;-71
2024/04/20 01:55:04;;;;;;;6.43;1.10;;;6.50;99.90;;;;;;5354711;26;20012;-70
2024/04/20 01:57:30;;;;;;;9.55;1.73;;;6.50;99.90;;;;;;5342108;26;20011;-70
2024/04/20 01:59:56;;;;;;;3.97;1.33;;;6.50;99.90;;;;;;5355450;26;20012;-69
2024/04/20 02:02:21;;;;;;;9.55;1.15;;;6.50;99.90;;;;;;5328016;26;20066;-69
2024/04/20 02:04:48;;;;;;;14.07;1.58;;;6.60;99.90;;;;;;5353161;26;20325;-70
2024/04/20 02:07:13;;;;;;;14.45;2.83;;;6.60;99.90;;;;;;5323143;26;20100;-69
2024/04/20 02:09:39;;;;;;;10.20;1.45;;;6.50;99.90;;;;;;5356203;26;20016;-69
2024/04/20 02:12:05;;;;;;;13.25;1.77;;;6.50;99.90;;;;;;5353064;26;20073;-70
2024/04/20 02:14:30;;;;;;;6.25;1.17;;;6.60;99.90;;;;;;5354826;26;20051;-69
2024/04/20 02:16:56;;;;;;;9.43;0.95;;;6.60;99.90;;;;;;5352749;26;20031;-70
2024/04/20 02:19:21;;;;;;;15.82;2.05;;;6.60;99.90;;;;;;5353286;26;20541;-71
2024/04/20 02:21:47;;;;;;;11.52;1.63;;;6.60;99.90;;;;;;5318028;26;20032;-72
2024/04/20 02:24:12;;;;;;;16.90;1.90;;;6.60;99.90;;;;;;5351953;26;20036;-70
2024/04/20 02:26:38;;;;;;;13.15;2.22;;;6.50;99.90;;;;;;5356821;26;20004;-69
2024/04/20 02:29:03;;;;;;;10.50;1.60;;;6.50;99.90;;;;;;5356690;26;20430;-70
2024/04/20 02:31:30;;;;;;;12.90;2.40;;;6.50;99.90;;;;;;5356359;26;20063;-71
2024/04/20 02:33:56;;;;;;;10.15;1.13;;;6.50;99.90;;;;;;5354991;26;20385;-70
2024/04/20 02:36:27;;;;;;;12.13;1.65;;;6.50;99.90;;;;;;5354272;26;20001;-70
2024/04/20 02:38:52;;;;;;;15.35;2.55;;;6.50;99.90;;;;;;5359848;26;20011;-70
2024/04/20 02:41:18;;;;;;;10.52;1.52;;;6.50;99.90;;;;;;5356559;26;20005;-71
2024/04/20 02:43:44;;;;;;;16.77;2.55;;;6.50;99.90;;;;;;5332315;26;20005;-71
2024/04/20 02:46:09;;;;;;;14.88;2.45;;;6.60;99.90;;;;;;5325199;26;20462;-71
2024/04/20 02:48:35;;;;;;;8.15;1.65;;;6.60;99.90;;;;;;5359974;26;19996;-72
2024/04/20 02:51:01;;;;;;;12.63;2.25;;;6.60;99.90;;;;;;5351736;26;20612;-70
2024/04/20 02:53:27;;;;;;;11.85;2.17;;;6.60;99.90;;;;;;5361986;26;20401;-68
2024/04/20 02:55:52;;;;;;;5.95;1.00;;;6.60;99.90;;;;;;5353342;26;20079;-71
2024/04/20 02:58:18;;;;;;;14.75;1.67;;;6.60;99.90;;;;;;5354999;26;20005;-68
2024/04/20 03:00:58;;;;;;;12.35;2.28;;;6.60;99.90;;;;;;5360928;26;20008;-69
2024/04/20 03:03:25;;;;;;;12.13;1.63;;;6.60;99.90;;;;;;5361037;26;20460;-67
2024/04/20 03:05:50;;;;;;;11.77;1.50;;;6.60;99.90;;;;;;5358425;26;20463;-69
2024/04/20 03:08:16;;;;;;;11.02;2.03;;;6.50;99.90;;;;;;5355711;26;20020;-70
2024/04/20 03:10:41;;;;;;;13.65;1.23;;;6.50;99.90;;;;;;5358984;26;20065;-71
2024/04/20 03:13:07;;;;;;;9.38;1.10;;;6.60;99.90;;;;;;5351157;26;20090;-71
2024/04/20 03:15:32;;;;;;;14.93;2.00;;;6.60;99.90;;;;;;5359180;26;20012;-71
2024/04/20 03:17:58;;;;;;;8.35;1.40;;;6.60;99.90;;;;;;5348327;26;20012;-70
2024/04/20 03:20:24;;;;;;;11.52;1.38;;;6.60;99.90;;;;;;5357520;26;20421;-70
2024/04/20 03:22:49;;;;;;;6.95;1.80;;;6.60;99.90;;;;;;5351830;26;19997;-71
2024/04/20 03:25:15;;;;;;;8.70;1.65;;;6.60;99.90;;;;;;5354344;26;20016;-70
2024/04/20 03:27:41;;;;;;;6.25;1.23;;;6.60;99.90;;;;;;5359007;26;20001;-71
2024/04/20 03:30:07;;;;;;;18.48;2.42;;;6.60;99.90;;;;;;5355230;26;20453;-70
2024/04/20 03:32:33;;;;;;;10.77;1.40;;;6.60;99.90;;;;;;5363298;26;20008;-71
2024/04/20 03:34:58;;;;;;;10.02;1.50;;;6.60;99.90;;;;;;5356392;26;20000;-71
2024/04/20 03:37:24;;;;;;;8.85;1.02;;;6.60;99.90;;;;;;5358405;26;20390;-70
2024/04/20 03:39:49;;;;;;;9.73;0.98;;;6.60;99.90;;;;;;5332458;26;20391;-70
2024/04/20 03:42:15;;;;;;;11.88;2.22;;;6.60;99.90;;;;;;5355730;26;19997;-69
2024/04/20 03:44:40;;;;;;;14.48;1.52;;;6.50;99.90;;;;;;5362819;26;20004;-71
2024/04/20 03:47:06;;;;;;;7.30;1.60;;;6.60;99.90;;;;;;5328106;26;20077;-70
2024/04/20 03:49:32;;;;;;;5.60;0.75;;;6.60;99.90;;;;;;5357897;26;20442;-70
2024/04/20 03:51:57;;;;;;;11.95;1.20;;;6.60;99.90;;;;;;5355339;26;19996;-71
2024/04/20 03:54:23;;;;;;;8.45;1.70;;;6.60;99.90;;;;;;5361761;26;20362;-71
2024/04/20 03:56:48;;;;;;;8.85;1.00;;;6.60;99.90;;;;;;5347215;26;20004;-70
2024/04/20 03:59:14;;;;;;;14.15;1.08;;;6.50;99.90;;;;;;5352637;26;20040;-71
2024/04/20 04:01:40;;;;;;;6.60;1.05;;;6.50;99.90;;;;;;5358560;26;20000;-71
2024/04/20 04:04:06;;;;;;;7.15;1.70;;;6.50;99.90;;;;;;5357051;26;20011;-70
2024/04/20 04:06:32;;;;;;;12.27;1.50;;;6.50;99.90;;;;;;5359303;26;20040;-70
2024/04/20 04:08:58;;;;;;;8.43;1.35;;;6.50;99.90;;;;;;5351829;26;20000;-71
2024/04/20 04:11:23;;;;;;;18.88;1.58;;;6.40;99.90;;;;;;5355011;26;20005;-71
2024/04/20 04:13:49;;;;;;;6.22;1.10;;;6.40;99.90;;;;;;5321927;26;20004;-70
2024/04/20 04:16:14;;;;;;;7.22;1.40;;;6.40;99.90;;;;;;5353415;26;20004;-71
2024/04/20 04:18:40;;;;;;;12.90;1.88;;;6.40;99.90;;;;;;5360026;26;20000;-70
2024/04/20 04:21:06;;;;;;;9.10;1.05;;;6.40;99.90;;;;;;5345340;26;20001;-70
2024/04/20 04:23:32;;;;;;;11.43;1.27;;;6.40;99.90;;;;;;5325689;26;20019;-70
2024/04/20 04:25:57;;;;;;;4.60;0.57;;;6.40;99.90;;;;;;5355878;26;20044;-70
2024/04/20 04:28:23;;;;;;;18.10;1.48;;;6.40;99.90;;;;;;5357377;26;20012;-72
2024/04/20 04:30:48;;;;;;;9.95;1.38;;;6.40;99.90;;;;;;5356355;26;20000;-71
2024/04/20 04:33:14;;;;;;;9.73;1.90;;;6.40;99.90;;;;;;5354712;26;20420;-71
2024/04/20 04:35:40;;;;;;;9.25;2.65;;;6.40;99.90;;;;;;5327956;26;20458;-71
2024/04/20 04:38:05;;;;;;;12.02;1.05;;;6.40;99.90;;;;;;5352263;26;20078;-70
2024/04/20 04:40:31;;;;;;;8.02;1.30;;;6.40;99.90;;;;;;5365252;26;19996;-69
2024/04/20 04:42:56;;;;;;;3.38;1.15;;;6.40;99.90;;;;;;5359284;26;20007;-70
2024/04/20 04:45:22;;;;;;;6.45;0.95;;;6.50;99.90;;;;;;5327370;26;20461;-71
2024/04/20 04:47:47;;;;;;;8.00;2.22;;;6.50;99.90;;;;;;5356190;26;19996;-71
2024/04/20 04:50:13;;;;;;;7.85;1.52;;;6.60;99.90;;;;;;5353628;26;20011;-70
2024/04/20 04:52:38;;;;;;;11.68;1.38;;;6.60;99.90;;;;;;5359085;26;19997;-69
2024/04/20 04:55:04;;;;;;;15.85;2.13;;;6.70;99.90;;;;;;5352562;26;20012;-71
2024/04/20 04:57:30;;;;;;;11.02;1.40;;;6.70;99.90;;;;;;5361265;26;20015;-70
2024/04/20 04:59:55;;;;;;;14.70;1.92;;;6.80;99.90;;;;;;5323244;26;20019;-70
2024/04/20 05:02:21;;;;;;;6.72;0.85;;;6.80;99.90;;;;;;5355410;26;20458;-71
2024/04/20 05:04:46;;;;;;;9.27;1.50;;;6.90;99.90;;;;;;5363399;26;20008;-68
2024/04/20 05:07:12;;;;;;;8.25;0.85;;;6.90;99.90;;;;;;5354692;26;20407;-69
2024/04/20 05:09:38;;;;;;;9.50;1.85;;;7.00;99.90;;;;;;5359279;26;20011;-68
2024/04/20 05:12:05;;;;;;;4.18;0.70;;;7.00;99.90;;;;;;5357515;26;20327;-70
2024/04/20 05:14:31;;;;;;;8.88;1.30;;;7.10;99.90;;;;;;5357559;26;20100;-71
2024/04/20 05:16:57;;;;;;;13.35;2.15;;;7.10;99.90;;;;;;5352152;26;20014;-72
2024/04/20 05:19:23;;;;;;;5.90;0.82;;;7.10;99.90;;;;;;5356711;26;20012;-70
2024/04/20 05:21:48;;;;;;;13.88;1.98;;;7.10;99.90;;;;;;5355985;26;20072;-72
2024/04/20 05:24:14;;;;;;;6.05;1.15;;;7.10;99.90;;;;;;5354021;26;20011;-71
2024/04/20 05:26:39;;;;;;;7.25;1.08;;;7.20;99.90;;;;;;5358624;26;20028;-69
2024/04/20 05:29:05;;;;;;;8.80;1.50;;;7.20;99.90;;;;;;5351905;26;20045;-70
2024/04/20 05:31:30;;;;;;;4.32;1.30;;;7.20;99.90;;;;;;5359435;26;20000;-71
2024/04/20 05:33:56;;;;;;;7.25;0.85;;;7.30;99.90;;;;;;5355892;26;20078;-70
2024/04/20 05:36:21;;;;;;;13.75;2.10;;;7.30;99.90;;;;;;5317034;26;20074;-69
2024/04/20 05:38:47;;;;;;;6.75;0.70;;;7.30;99.90;;;;;;5358821;26;20001;-69
2024/04/20 05:41:13;;;;;;;8.30;0.88;;;7.40;99.90;;;;;;5357707;26;20029;-72
2024/04/20 05:43:38;;;;;;;9.00;1.05;;;7.40;99.90;;;;;;5367184;26;20115;-70
2024/04/20 05:46:04;;;;;;;10.23;1.17;;;7.50;99.90;;;;;;5352686;26;20412;-70
2024/04/20 05:48:29;;;;;;;12.90;1.52;;;7.50;99.90;;;;;;5365231;26;20047;-72
2024/04/20 05:50:55;;;;;;;6.45;1.05;;;7.50;99.90;;;;;;5353222;26;20026;-71
2024/04/20 05:53:21;;;;;;;7.75;1.50;;;7.60;99.90;;;;;;5366767;26;20007;-70
2024/04/20 05:55:46;;;;;;;6.63;0.95;;;7.60;99.90;;;;;;5356020;26;20425;-71
2024/04/20 05:58:12;;;;;;;6.22;1.48;;;7.70;99.90;;;;;;5357693;26;20450;-71
2024/04/20 06:00:38;;;;;;;9.55;1.95;;;7.80;99.90;;;;;;5358015;26;20044;-69
2024/04/20 06:03:03;;;;;;;5.53;1.58;;;7.80;99.90;;;;;;5356375;26;20008;-70
2024/04/20 06:05:29;;;;;;;5.05;0.85;;;7.80;99.90;;;;;;5358497;26;20011;-71
2024/04/20 06:07:54;;;;;;;7.03;0.98;;;7.70;99.90;;;;;;5352485;26;20082;-70
2024/04/20 06:10:20;;;;;;;6.22;1.13;;;7.70;99.90;;;;;;5347580;26;20000;-70
2024/04/20 06:12:45;;;;;;;9.43;2.17;;;7.80;99.90;;;;;;5354226;26;20007;-70
2024/04/20 06:15:11;;;;;;;9.98;1.55;;;7.80;99.90;;;;;;5332700;26;20020;-71
2024/04/20 06:17:36;;;;;;;7.68;1.40;;;7.80;99.90;;;;;;5352217;26;20004;-71
2024/04/20 06:20:02;;;;;;;8.02;1.50;;;7.80;99.90;;;;;;5358144;26;20070;-71
2024/04/20 06:22:28;;;;;;;12.85;1.75;;;7.90;99.90;;;;;;5322063;26;20007;-70
2024/04/20 06:24:54;;;;;;;4.90;0.70;;;8.00;99.90;;;;;;5355894;26;20458;-72
2024/04/20 06:27:20;;;;;;;8.32;0.75;;;8.10;99.90;;;;;;5322398;26;19996;-72
2024/04/20 06:29:46;;;;;;;5.53;1.35;;;7.90;99.90;;;;;;5353473;26;20000;-71
2024/04/20 06:32:11;;;;;;;7.63;0.95;;;7.90;99.90;;;;;;5354625;26;20452;-69
2024/04/20 06:34:37;;;;;;;4.72;0.57;;;7.90;99.90;;;;;;5351773;26;20008;-70
2024/04/20 06:37:03;;;;;;;7.13;1.33;;;8.00;99.90;;;;;;5357957;26;20015;-70
2024/04/20 06:39:28;;;;;;;10.20;2.42;;;8.00;99.90;;;;;;5358402;26;20021;-70
2024/04/20 06:41:56;;;;;;;4.75;0.60;;;8.10;99.90;;;;;;5356913;26;20872;-70
2024/04/20 06:44:22;;;;;;;9.50;1.38;;;8.10;99.90;;;;;;5347813;26;20374;-72
2024/04/20 06:46:48;;;;;;;3.90;1.02;;;8.20;99.90;;;;;;5325291;26;20007;-70
2024/04/20 06:49:13;;;;;;;6.95;2.65;;;8.40;99.90;;;;;;5321828;26;20403;-71
2024/04/20 06:51:39;;;;;;;5.78;1.27;;;8.50;99.90;;;;;;5351793;26;19997;-71
2024/04/20 06:54:05;;;;;;;6.95;1.23;;;8.70;99.90;;;;;;5364295;26;20007;-71
2024/04/20 06:56:30;;;;;;;10.02;0.75;;;9.30;99.90;;;;;;5345842;26;20012;-71
2024/04/20 06:58:56;;;;;;;4.63;0.80;;;9.80;99.90;;;;;;5353736;26;20009;-71
2024/04/20 07:01:22;;;;;;;3.33;0.63;;;10.00;99.90;;;;;;5352661;26;20008;-71
2024/04/20 07:03:47;;;;;;;7.28;0.80;;;10.10;99.90;;;;;;5357463;26;20073;-70
2024/04/20 07:06:13;;;;;;;7.78;0.50;;;9.90;99.90;;;;;;5321556;26;19996;-68
2024/04/20 07:08:38;;;;;;;3.25;0.45;;;9.80;99.90;;;;;;5355335;26;20045;-69
2024/04/20 07:11:05;;;;;;;3.33;1.00;;;9.70;99.90;;;;;;5354630;26;20019;-71
2024/04/20 07:13:36;;;;;;;5.03;0.68;;;9.50;99.90;;;;;;5351505;26;20338;-71
2024/04/20 07:16:02;;;;;;;6.55;0.70;;;9.60;99.90;;;;;;5349964;26;20004;-71
2024/04/20 07:18:28;;;;;;;6.18;0.65;;;9.70;99.90;;;;;;5355870;26;20001;-71
2024/04/20 07:20:54;;;;;;;8.52;1.48;;;9.70;99.90;;;;;;5352555;26;20046;-70
2024/04/20 07:23:20;;;;;;;4.70;0.52;;;9.90;99.90;;;;;;5348217;26;19996;-72
2024/04/20 07:25:45;;;;;;;1.92;0.32;;;10.10;99.90;;;;;;5354498;26;19997;-70
2024/04/20 07:28:12;;;;;;;2.92;0.50;;;10.20;99.90;;;;;;5355658;26;20338;-70
2024/04/20 07:30:40;;;;;;;3.95;0.25;;;10.60;99.90;;;;;;5349471;26;20347;-69
2024/04/20 07:33:06;;;;;;;2.25;0.55;;;10.50;99.90;;;;;;5355875;26;22763;-70
2024/04/20 07:35:31;;;;;;;3.22;0.60;;;10.60;99.90;;;;;;5353273;26;20004;-70
2024/04/20 07:37:57;;;;;;;5.00;0.55;;;10.40;99.90;;;;;;5358103;26;20008;-70
2024/04/20 07:40:23;;;;;;;5.00;0.40;;;10.30;99.90;;;;;;5359228;26;20466;-70
2024/04/20 07:42:48;;;;;;;5.82;0.82;;;10.30;99.90;;;;;;5359047;26;20055;-71
2024/04/20 07:45:14;;;;;;;7.07;0.68;;;10.20;99.90;;;;;;5357866;26;20004;-71
2024/04/20 07:47:39;;;;;;;8.02;1.02;;;10.50;99.90;;;;;;5354756;26;20142;-70
2024/04/20 07:50:06;;;;;;;5.25;0.50;;;10.70;99.90;;;;;;5352856;26;19996;-71
2024/04/20 07:52:32;;;;;;;6.10;0.70;;;10.70;99.90;;;;;;5351498;26;20468;-71
2024/04/20 07:54:57;;;;;;;5.28;1.45;;;10.80;99.90;;;;;;5365864;26;20969;-71
2024/04/20 07:57:23;;;;;;;6.13;0.70;;;10.80;99.90;;;;;;5349042;26;20005;-72
2024/04/20 07:59:49;;;;;;;6.57;1.05;;;10.70;99.90;;;;;;5357171;26;20472;-71
2024/04/20 08:02:14;;;;;;;4.80;0.68;;;10.80;99.90;;;;;;5349417;26;20360;-71
2024/04/20 08:04:40;;;;;;;4.97;1.38;;;10.90;99.90;;;;;;5361336;26;20473;-67
2024/04/20 08:07:05;;;;;;;8.40;0.85;;;11.00;99.90;;;;;;5355683;26;20005;-71
2024/04/20 08:09:31;;;;;;;5.85;0.98;;;11.00;99.90;;;;;;5322797;26;20354;-72
2024/04/20 08:11:56;;;;;;;4.63;0.90;;;10.90;99.90;;;;;;5322292;26;20027;-72
2024/04/20 08:14:22;;;;;;;5.45;1.17;;;10.90;99.90;;;;;;5363337;26;19996;-72
2024/04/20 08:16:47;;;;;;;5.38;0.70;;;10.80;99.90;;;;;;5362272;26;20361;-69
2024/04/20 08:19:13;;;;;;;7.90;0.80;;;10.80;99.90;;;;;;5352836;26;20026;-71
2024/04/20 08:21:38;;;;;;;5.30;0.98;;;10.70;99.90;;;;;;5352711;26;20030;-69
2024/04/20 08:24:04;;;;;;;12.75;1.33;;;10.60;99.90;;;;;;5354155;26;20014;-71
2024/04/20 08:26:31;;;;;;;10.23;0.98;;;10.80;99.90;;;;;;5353692;26;20017;-71
2024/04/20 08:28:57;;;;;;;6.88;1.00;;;11.00;99.90;;;;;;5324767;26;20020;-71
2024/04/20 08:31:23;;;;;;;11.38;1.52;;;11.00;99.90;;;;;;5352728;26;20005;-70
2024/04/20 08:33:49;;;;;;;3.83;0.50;;;11.00;99.90;;;;;;5357021;26;20477;-70
2024/04/20 08:36:14;;;;;;;5.97;1.10;;;11.00;99.90;;;;;;5322305;26;20004;-70
2024/04/20 08:38:40;;;;;;;6.00;0.57;;;10.90;99.90;;;;;;5354470;26;20086;-70
2024/04/20 08:41:18;;;;;;;2.65;1.20;;;10.70;99.90;;;;;;5359723;26;20036;-71
2024/04/20 08:43:43;;;;;;;8.18;0.63;;;10.80;99.90;;;;;;5331020;26;20008;-70
2024/04/20 08:46:14;;;;;;;7.15;0.90;;;11.00;99.90;;;;;;5353979;26;20008;-70
2024/04/20 08:48:44;;;;;;;22.95;1.30;;;10.90;99.90;;;;;;5352662;26;20021;-72
2024/04/20 08:51:16;;;;;;;7.55;1.10;;;11.20;99.90;;;;;;5351662;26;20019;-69
2024/04/20 08:53:45;;;;;;;4.50;0.63;;;11.10;99.90;;;;;;5352878;26;20022;-71
2024/04/20 08:56:10;;;;;;;4.95;0.40;;;11.10;99.90;;;;;;5343766;26;20080;-69
2024/04/20 08:58:36;;;;;;;6.32;0.50;;;11.20;99.90;;;;;;5354515;26;20392;-72
2024/04/20 09:01:04;;;;;;;5.53;0.60;;;11.20;99.50;;;;;;5355029;26;20045;-71
2024/04/20 09:03:30;;;;;;;2.75;0.80;;;11.40;98.90;;;;;;5328055;26;20011;-70
2024/04/20 09:05:57;;;;;;;5.15;0.60;;;11.40;98.70;;;;;;5349362;26;20009;-70
2024/04/20 09:08:24;;;;;;;6.78;0.70;;;11.20;98.90;;;;;;5353261;26;20051;-71
2024/04/20 09:10:50;;;;;;;10.45;0.47;;;11.30;99.90;;;;;;5354510;26;20004;-71
2024/04/20 09:13:18;;;;;;;4.45;0.55;;;11.40;99.90;;;;;;5362868;26;20000;-71
2024/04/20 09:15:45;;;;;;;4.55;0.93;;;11.30;99.60;;;;;;5354584;26;20015;-70
2024/04/20 09:18:10;;;;;;;5.63;0.50;;;11.30;99.90;;;;;;5351807;26;20004;-70
2024/04/20 09:20:36;;;;;;;8.45;1.30;;;11.20;99.90;;;;;;5354340;26;20041;-71
2024/04/20 09:23:06;;;;;;;5.88;0.73;;;11.30;99.90;;;;;;5355605;26;20028;-72
2024/04/20 09:25:33;;;;;;;7.22;0.95;;;11.50;99.90;;;;;;5353301;26;20095;-70
2024/04/20 09:28:00;;;;;;;2.53;0.65;;;11.80;99.30;;;;;;5329886;26;20011;-70
2024/04/20 09:30:26;;;;;;;3.95;0.68;;;11.80;99.20;;;;;;5350873;26;20123;-69
2024/04/20 09:32:51;;;;;;;5.22;0.75;;;11.80;99.80;;;;;;5362985;26;20908;-70
2024/04/20 09:35:19;;;;;;;6.57;0.80;;;11.70;99.70;;;;;;5350630;26;20001;-70
2024/04/20 09:37:45;;;;;;;3.25;1.20;;;11.40;99.90;;;;;;5325011;26;20078;-71
2024/04/20 09:40:11;;;;;;;3.38;0.63;;;11.20;99.90;;;;;;5359203;26;20016;-71
2024/04/20 09:42:41;;;;;;;8.77;0.95;;;11.10;99.90;;;;;;5354144;26;20070;-71
2024/04/20 09:45:08;;;;;;;12.57;0.93;;;11.20;99.90;;;;;;5328915;26;20045;-70
2024/04/20 09:47:36;;;;;;;10.88;0.68;;;11.30;99.90;;;;;;5357814;26;20263;-71
2024/04/20 09:50:10;;;;;;;6.95;1.02;;;11.60;99.90;;;;;;5354027;26;19996;-71
2024/04/20 09:53:06;;;;;;;3.97;0.52;;;11.40;99.90;;;;;;5330489;26;20004;-70
2024/04/20 09:55:34;;;;;;;0.60;0.13;;;11.00;99.90;;;;;;5358192;26;20016;-70
2024/04/20 09:58:02;;;;;;;6.28;0.32;;;10.80;99.90;;;;;;5357685;26;20012;-71
2024/04/20 10:00:32;;;;;;;4.28;0.30;;;10.50;99.90;;;;;;5348474;26;20068;-70
2024/04/20 10:02:58;;;;;;;1.17;0.20;;;10.50;99.90;;;;;;5360507;26;20080;-71
2024/04/20 10:05:25;;;;;;;2.45;0.55;;;10.60;99.90;;;;;;5353095;26;20024;-70
2024/04/20 10:07:51;;;;;;;3.92;0.60;;;10.70;99.90;;;;;;5357301;26;20334;-71
2024/04/20 10:10:18;;;;;;;4.85;0.88;;;10.80;99.90;;;;;;5346456;26;20346;-71
2024/04/20 10:12:44;;;;;;;8.80;1.30;;;11.00;99.90;;;;;;5355901;26;20400;-71
2024/04/20 10:15:10;;;;;;;2.45;0.30;;;11.10;99.90;;;;;;5351790;26;20433;-71
2024/04/20 10:17:36;;;;;;;7.85;0.63;;;11.20;99.90;;;;;;5361293;26;20468;-70
2024/04/20 10:20:02;;;;;;;6.38;0.85;;;11.30;99.90;;;;;;5322650;26;20036;-71
2024/04/20 10:22:28;;;;;;;5.45;1.00;;;11.70;99.90;;;;;;5352612;26;20017;-70
2024/04/20 10:24:55;;;;;;;4.10;0.75;;;12.00;99.90;;;;;;5355828;26;20019;-71
2024/04/20 10:27:30;;;;;;;4.25;0.45;;;11.70;99.90;;;;;;5350201;26;20079;-71
2024/04/20 10:30:16;;;;;;;1.45;0.32;;;11.30;99.90;;;;;;5361476;26;20000;-72
2024/04/20 10:32:42;;;;;;;4.10;1.15;;;11.00;99.90;;;;;;5350435;26;20001;-71
2024/04/20 10:35:07;;;;;;;4.68;0.95;;;10.80;99.90;;;;;;5323866;26;20005;-71
2024/04/20 10:37:36;;;;;;;5.60;1.05;;;10.80;99.90;;;;;;5363003;26;20000;-72
2024/04/20 10:40:08;;;;;;;6.22;1.08;;;11.00;99.90;;;;;;5358406;26;20550;-71
2024/04/20 10:42:35;;;;;;;4.70;1.05;;;11.30;99.90;;;;;;5349105;26;20081;-72
2024/04/20 10:45:09;;;;;;;8.63;1.17;;;11.20;99.90;;;;;;5358454;26;20012;-70
2024/04/20 10:47:35;;;;;;;7.15;0.90;;;11.10;99.90;;;;;;5322672;26;20716;-72
2024/04/20 10:50:01;;;;;;;7.20;1.35;;;11.00;99.90;;;;;;5356378;26;20000;-70
2024/04/20 10:52:27;;;;;;;5.80;1.17;;;11.10;99.90;;;;;;5347743;26;20094;-71
2024/04/20 10:54:57;;;;;;;9.13;1.60;;;11.00;99.90;;;;;;5324059;26;20477;-71
2024/04/20 10:57:26;;;;;;;7.97;0.70;;;10.90;99.90;;;;;;5355466;26;20015;-72
2024/04/20 10:59:52;;;;;;;7.72;1.02;;;10.70;99.90;;;;;;5351319;26;20004;-71
2024/04/20 11:02:18;;;;;;;1.75;0.77;;;10.70;99.90;;;;;;5357113;26;20011;-71
2024/04/20 11:04:43;;;;;;;7.82;0.60;;;10.90;99.90;;;;;;5369638;26;20000;-71
2024/04/20 11:07:09;;;;;;;8.18;0.68;;;11.10;99.90;;;;;;5350085;26;20009;-71
2024/04/20 11:09:35;;;;;;;5.22;0.80;;;11.10;99.90;;;;;;5357431;26;20015;-71
2024/04/20 11:12:03;;;;;;;7.93;0.70;;;11.40;99.90;;;;;;5359756;26;20012;-71
2024/04/20 11:14:32;;;;;;;3.72;0.70;;;11.40;99.90;;;;;;5327163;26;20340;-71
2024/04/20 11:17:00;;;;;;;7.57;1.00;;;11.30;99.90;;;;;;5357441;26;20009;-71
2024/04/20 11:19:26;;;;;;;6.38;0.57;;;11.10;99.90;;;;;;5357390;26;19997;-71
2024/04/20 11:21:52;;;;;;;7.50;1.15;;;10.80;99.90;;;;;;5356981;26;20043;-70
2024/04/20 11:24:18;;;;;;;5.30;1.02;;;10.60;99.90;;;;;;5354068;26;20011;-70
2024/04/20 11:26:44;;;;;;;4.85;1.10;;;10.60;99.90;;;;;;5338798;26;20005;-71
2024/04/20 11:29:11;;;;;;;4.70;0.70;;;10.60;99.90;;;;;;5357721;26;20070;-70
2024/04/20 11:31:37;;;;;;;7.80;0.60;;;10.50;99.90;;;;;;5354586;26;20008;-71
2024/04/20 11:34:02;;;;;;;1.70;1.08;;;10.70;99.90;;;;;;5326632;26;20073;-71
2024/04/20 11:36:30;;;;;;;4.20;0.90;;;11.10;99.90;;;;;;5356085;26;20482;-71
2024/04/20 11:39:06;;;;;;;6.78;1.13;;;11.20;99.90;;;;;;5358398;26;20014;-72
2024/04/20 11:41:32;;;;;;;7.45;1.02;;;11.50;99.90;;;;;;5333803;26;19996;-71
2024/04/20 11:44:04;;;;;;;10.73;0.75;;;11.70;99.90;;;;;;5353263;26;20013;-72
2024/04/20 11:46:30;;;;;;;9.48;2.10;;;11.80;99.90;;;;;;5368118;26;19997;-68
2024/04/20 11:48:55;;;;;;;6.40;1.10;;;11.70;99.90;;;;;;5353507;26;20347;-71
2024/04/20 11:54:18;;;;;;;4.18;0.45;;;11.30;99.90;;;;;;5361731;26;20086;-70
2024/04/20 11:56:44;;;;;;;7.30;0.73;;;11.20;99.90;;;;;;5358304;26;20053;-71
2024/04/20 11:59:13;;;;;;;3.17;0.63;;;11.20;99.90;;;;;;5353341;26;20005;-69
2024/04/20 12:01:39;;;;;;;7.82;0.90;;;11.40;99.90;;;;;;5358366;26;20063;-70
2024/04/20 12:04:08;;;;;;;3.72;0.60;;;11.60;99.90;;;;;;5367929;26;20048;-71
2024/04/20 12:06:34;;;;;;;14.95;1.13;;;11.60;99.90;;;;;;5355006;26;20004;-73
2024/04/20 12:08:59;;;;;;;8.60;0.70;;;11.70;99.90;;;;;;5357747;26;20020;-73
2024/04/20 12:11:26;;;;;;;10.05;1.42;;;11.80;99.90;;;;;;5356805;26;20001;-74
2024/04/20 12:13:51;;;;;;;6.40;1.08;;;12.00;99.90;;;;;;5353183;26;20465;-69
2024/04/20 12:16:17;;;;;;;3.22;0.55;;;12.00;99.90;;;;;;5355749;26;20073;-70
2024/04/20 12:18:44;;;;;;;3.67;0.82;;;11.90;99.90;;;;;;5351957;26;20127;-71
2024/04/20 12:21:13;;;;;;;8.52;1.50;;;12.00;99.90;;;;;;5349369;26;20005;-72
2024/04/20 12:23:39;;;;;;;5.90;1.10;;;12.10;99.90;;;;;;5323311;26;20005;-71
2024/04/20 12:26:06;;;;;;;8.80;1.58;;;12.10;99.90;;;;;;5352324;26;20772;-70
2024/04/20 12:28:32;;;;;;;2.80;0.85;;;11.70;99.90;;;;;;5355700;26;20015;-71
2024/04/20 12:31:00;;;;;;;2.50;0.47;;;11.50;99.90;;;;;;5356799;26;20346;-71
2024/04/20 12:33:27;;;;;;;5.22;0.77;;;11.30;99.90;;;;;;5356712;26;20399;-71
2024/04/20 12:35:52;;;;;;;10.07;0.85;;;11.20;99.90;;;;;;5326394;26;19997;-71
2024/04/20 12:38:19;;;;;;;3.10;0.95;;;11.20;99.90;;;;;;5361495;26;20033;-70
2024/04/20 12:40:44;;;;;;;5.30;0.82;;;11.10;99.90;;;;;;5381562;26;20003;-69
2024/04/20 12:43:10;;;;;;;6.90;0.55;;;11.30;99.90;;;;;;5338654;26;20032;-71
2024/04/20 12:45:36;;;;;;;5.70;0.82;;;11.40;99.90;;;;;;5326686;26;20001;-71
2024/04/20 12:48:01;;;;;;;4.78;0.68;;;11.70;99.90;;;;;;5360562;26;20011;-72